Time,TemperatureF,DewpointF,PressureIn,WindDirection,WindDirectionDegrees,WindSpeedMPH,WindSpeedGustMPH,Humidity,HourlyPrecipIn,Conditions,Clouds,dailyrainin,SoftwareType,DateUTC
2013-05-10 00:00:00,72.3,67.5,30.10,SSE,164,10.0,17.0,85,0.00,,,0.00,Wunderground v.1.15,2013-05-10 04:00:00,
2013-05-10 00:05:00,72.2,67.1,30.10,SSW,194,10.0,17.0,84,0.00,,,0.00,Wunderground v.1.15,2013-05-10 04:05:00,
2013-05-10 00:10:00,72.1,67.3,30.11,South,178,11.0,17.0,85,0.00,,,0.00,Wunderground v.1.15,2013-05-10 04:10:00,
2013-05-10 00:15:00,72.0,67.2,30.11,South,190,10.0,17.0,85,0.00,,,0.00,Wunderground v.1.15,2013-05-10 04:15:00,
2013-05-10 00:20:00,71.9,67.5,30.11,South,182,10.0,10.0,86,0.00,,,0.00,Wunderground v.1.15,2013-05-10 04:20:00,
2013-05-10 00:25:00,71.9,67.8,30.10,SSE,167,10.0,11.0,87,0.00,,,0.00,Wunderground v.1.15,2013-05-10 04:25:00,
2013-05-10 00:30:00,71.9,67.8,30.10,SSE,155,10.0,17.0,87,0.00,,,0.00,Wunderground v.1.15,2013-05-10 04:30:00,
2013-05-10 00:35:00,71.8,68.1,30.10,SSE,167,11.0,17.0,88,0.00,,,0.00,Wunderground v.1.15,2013-05-10 04:35:00,
2013-05-10 00:40:00,71.8,68.1,30.10,South,170,11.0,11.0,88,0.00,,,0.00,Wunderground v.1.15,2013-05-10 04:40:00,
2013-05-10 00:45:00,71.9,68.5,30.09,SSE,147,10.0,17.0,89,0.00,,,0.00,Wunderground v.1.15,2013-05-10 04:45:00,
2013-05-10 00:50:00,71.9,68.8,30.08,SSE,168,11.0,11.0,90,0.00,,,0.00,Wunderground v.1.15,2013-05-10 04:50:00,
2013-05-10 00:55:00,71.8,68.7,30.08,SSE,166,11.0,19.0,90,0.00,,,0.00,Wunderground v.1.15,2013-05-10 04:55:00,
2013-05-10 01:00:00,71.7,68.6,30.08,SSE,154,12.0,12.0,90,0.00,,,0.00,Wunderground v.1.15,2013-05-10 05:00:00,
2013-05-10 01:05:00,71.8,69.0,30.07,SSE,165,12.0,17.0,91,0.00,,,0.00,Wunderground v.1.15,2013-05-10 05:05:00,
2013-05-10 01:10:00,71.8,68.7,30.07,SSE,158,12.0,17.0,90,0.00,,,0.00,Wunderground v.1.15,2013-05-10 05:10:00,
2013-05-10 01:15:00,71.7,68.6,30.07,South,179,13.0,17.0,90,0.00,,,0.00,Wunderground v.1.15,2013-05-10 05:15:00,
2013-05-10 01:20:00,71.8,69.0,30.07,South,182,12.0,12.0,91,0.00,,,0.00,Wunderground v.1.15,2013-05-10 05:20:00,
2013-05-10 01:30:00,71.7,68.9,30.06,SSE,148,13.0,17.0,91,0.00,,,0.00,Wunderground v.1.15,2013-05-10 05:30:00,
2013-05-10 01:35:00,71.7,68.9,30.06,SSE,163,13.0,18.0,91,0.00,,,0.00,Wunderground v.1.15,2013-05-10 05:35:00,
2013-05-10 01:40:00,71.8,69.0,30.06,SE,144,13.0,17.0,91,0.00,,,0.00,Wunderground v.1.15,2013-05-10 05:40:00,
2013-05-10 01:45:00,71.8,69.0,30.05,South,169,14.0,17.0,91,0.00,,,0.00,Wunderground v.1.15,2013-05-10 05:45:00,
2013-05-10 01:50:00,71.7,68.9,30.05,SSE,168,13.0,13.0,91,0.00,,,0.00,Wunderground v.1.15,2013-05-10 05:50:00,
2013-05-10 01:55:00,71.7,68.9,30.04,South,190,13.0,17.0,91,0.00,,,0.00,Wunderground v.1.15,2013-05-10 05:55:00,
2013-05-10 02:00:00,71.8,69.0,30.04,SSE,167,14.0,14.0,91,0.00,,,0.00,Wunderground v.1.15,2013-05-10 06:00:00,
2013-05-10 02:05:00,71.8,69.0,30.04,South,176,15.0,17.0,91,0.00,,,0.00,Wunderground v.1.15,2013-05-10 06:05:00,
2013-05-10 02:10:00,71.8,69.0,30.03,SSE,156,15.0,17.0,91,0.00,,,0.00,Wunderground v.1.15,2013-05-10 06:10:00,
2013-05-10 02:20:00,71.8,69.0,30.03,South,173,15.0,15.0,91,0.00,,,0.00,Wunderground v.1.15,2013-05-10 06:20:00,
2013-05-10 02:25:00,71.8,69.0,30.03,South,181,12.0,17.0,91,0.00,,,0.00,Wunderground v.1.15,2013-05-10 06:25:00,
2013-05-10 02:30:00,71.6,68.8,30.03,SSW,200,10.0,17.0,91,0.00,,,0.00,Wunderground v.1.15,2013-05-10 06:30:00,
2013-05-10 02:40:00,71.5,68.7,30.03,South,179,11.0,17.0,91,0.00,,,0.00,Wunderground v.1.15,2013-05-10 06:40:00,
2013-05-10 02:45:00,71.5,69.1,30.03,South,179,11.0,17.0,92,0.00,,,0.00,Wunderground v.1.15,2013-05-10 06:45:00,
2013-05-10 02:50:00,71.4,69.0,30.03,South,170,11.0,11.0,92,0.00,,,0.00,Wunderground v.1.15,2013-05-10 06:50:00,
2013-05-10 02:55:00,71.3,68.9,30.03,South,183,12.0,12.0,92,0.00,,,0.00,Wunderground v.1.15,2013-05-10 06:55:00,
2013-05-10 03:05:00,71.4,69.0,30.02,South,169,11.0,17.0,92,0.00,,,0.00,Wunderground v.1.15,2013-05-10 07:05:00,
2013-05-10 03:15:00,71.3,68.9,30.03,SSE,167,11.0,17.0,92,0.00,,,0.00,Wunderground v.1.15,2013-05-10 07:15:00,
2013-05-10 03:20:00,71.2,68.8,30.03,SSE,155,12.0,12.0,92,0.00,,,0.00,Wunderground v.1.15,2013-05-10 07:20:00,
2013-05-10 03:25:00,71.3,68.9,30.02,South,169,11.0,17.0,92,0.00,,,0.00,Wunderground v.1.15,2013-05-10 07:25:00,
2013-05-10 03:35:00,71.2,68.8,30.01,South,171,10.0,17.0,92,0.00,,,0.00,Wunderground v.1.15,2013-05-10 07:35:00,
2013-05-10 03:40:00,71.4,69.0,30.01,SSE,165,12.0,12.0,92,0.00,,,0.00,Wunderground v.1.15,2013-05-10 07:40:00,
2013-05-10 03:45:00,71.5,69.1,30.01,South,189,12.0,17.0,92,0.00,,,0.00,Wunderground v.1.15,2013-05-10 07:45:00,
2013-05-10 03:50:00,71.5,69.1,30.01,South,184,11.0,11.0,92,0.00,,,0.00,Wunderground v.1.15,2013-05-10 07:50:00,
2013-05-10 03:55:00,71.3,68.9,30.00,SSE,161,10.0,17.0,92,0.00,,,0.00,Wunderground v.1.15,2013-05-10 07:55:00,
2013-05-10 04:00:00,71.4,68.6,30.00,SSE,147,13.0,17.0,91,0.00,,,0.00,Wunderground v.1.15,2013-05-10 08:00:00,
2013-05-10 04:05:00,71.5,69.1,30.00,SSE,163,13.0,17.0,92,0.00,,,0.00,Wunderground v.1.15,2013-05-10 08:05:00,
2013-05-10 04:10:00,71.4,69.0,30.00,South,172,12.0,17.0,92,0.00,,,0.00,Wunderground v.1.15,2013-05-10 08:10:00,
2013-05-10 04:20:00,71.4,69.0,30.00,SSE,158,12.0,18.0,92,0.00,,,0.00,Wunderground v.1.15,2013-05-10 08:20:00,
2013-05-10 04:25:00,71.5,69.1,30.00,SSE,159,13.0,18.0,92,0.00,,,0.00,Wunderground v.1.15,2013-05-10 08:25:00,
2013-05-10 04:35:00,71.4,68.6,30.00,SSE,165,13.0,17.0,91,0.00,,,0.00,Wunderground v.1.15,2013-05-10 08:35:00,
2013-05-10 04:40:00,71.4,69.0,30.00,South,180,12.0,12.0,92,0.00,,,0.00,Wunderground v.1.15,2013-05-10 08:40:00,
2013-05-10 04:45:00,71.3,68.9,30.01,South,182,11.0,17.0,92,0.00,,,0.00,Wunderground v.1.15,2013-05-10 08:45:00,
2013-05-10 04:55:00,71.3,68.9,30.02,South,185,12.0,17.0,92,0.00,,,0.00,Wunderground v.1.15,2013-05-10 08:55:00,
2013-05-10 05:05:00,71.2,68.8,30.01,South,171,13.0,17.0,92,0.00,,,0.00,Wunderground v.1.15,2013-05-10 09:05:00,
2013-05-10 05:10:00,71.3,68.9,30.00,South,171,13.0,17.0,92,0.00,,,0.00,Wunderground v.1.15,2013-05-10 09:10:00,
2013-05-10 05:15:00,71.4,68.6,30.00,SSE,167,12.0,17.0,91,0.00,,,0.00,Wunderground v.1.15,2013-05-10 09:15:00,
2013-05-10 05:20:00,71.5,68.7,30.00,SSE,158,13.0,19.0,91,0.00,,,0.00,Wunderground v.1.15,2013-05-10 09:20:00,
2013-05-10 05:30:00,71.4,68.6,30.00,SSE,160,13.0,13.0,91,0.00,,,0.00,Wunderground v.1.15,2013-05-10 09:30:00,
2013-05-10 05:35:00,71.5,68.7,30.01,South,184,13.0,16.0,91,0.00,,,0.00,Wunderground v.1.15,2013-05-10 09:35:00,
2013-05-10 05:40:00,71.4,68.6,30.01,South,188,14.0,17.0,91,0.00,,,0.00,Wunderground v.1.15,2013-05-10 09:40:00,
2013-05-10 05:50:00,71.5,68.7,30.02,South,188,15.0,15.0,91,0.00,,,0.00,Wunderground v.1.15,2013-05-10 09:50:00,
2013-05-10 05:55:00,71.5,69.1,30.02,South,175,13.0,17.0,92,0.00,,,0.00,Wunderground v.1.15,2013-05-10 09:55:00,
2013-05-10 06:00:00,71.3,68.9,30.01,South,182,13.0,13.0,92,0.00,,,0.00,Wunderground v.1.15,2013-05-10 10:00:00,
2013-05-10 06:05:00,71.3,68.9,30.01,South,190,13.0,14.0,92,0.00,,,0.00,Wunderground v.1.15,2013-05-10 10:05:00,
2013-05-10 06:10:00,71.4,69.0,30.01,SSW,207,13.0,17.0,92,0.00,,,0.00,Wunderground v.1.15,2013-05-10 10:10:00,
2013-05-10 06:15:00,71.4,69.0,30.01,South,191,13.0,17.0,92,0.00,,,0.00,Wunderground v.1.15,2013-05-10 10:15:00,
2013-05-10 06:20:00,71.3,68.9,30.01,South,182,13.0,13.0,92,0.00,,,0.00,Wunderground v.1.15,2013-05-10 10:20:00,
2013-05-10 06:25:00,71.4,69.0,30.01,South,180,12.0,17.0,92,0.00,,,0.00,Wunderground v.1.15,2013-05-10 10:25:00,
2013-05-10 06:35:00,71.4,69.0,30.01,South,183,12.0,15.0,92,0.00,,,0.00,Wunderground v.1.15,2013-05-10 10:35:00,
2013-05-10 06:40:00,71.3,68.9,30.00,South,188,11.0,17.0,92,0.00,,,0.00,Wunderground v.1.15,2013-05-10 10:40:00,
2013-05-10 06:45:00,71.2,68.8,30.00,South,174,11.0,17.0,92,0.00,,,0.00,Wunderground v.1.15,2013-05-10 10:45:00,
2013-05-10 06:50:00,71.3,68.9,30.01,SSW,202,11.0,11.0,92,0.00,,,0.00,Wunderground v.1.15,2013-05-10 10:50:00,
2013-05-10 06:55:00,71.4,69.0,30.01,South,190,12.0,12.0,92,0.00,,,0.00,Wunderground v.1.15,2013-05-10 10:55:00,
2013-05-10 07:05:00,71.5,69.1,30.01,South,188,12.0,17.0,92,0.00,,,0.00,Wunderground v.1.15,2013-05-10 11:05:00,
2013-05-10 07:15:00,71.4,69.0,30.00,South,169,11.0,17.0,92,0.00,,,0.00,Wunderground v.1.15,2013-05-10 11:15:00,
2013-05-10 07:20:00,71.3,68.9,30.01,SSW,199,10.0,10.0,92,0.00,,,0.00,Wunderground v.1.15,2013-05-10 11:20:00,
2013-05-10 07:25:00,71.3,68.9,30.02,SSW,192,11.0,11.0,92,0.00,,,0.00,Wunderground v.1.15,2013-05-10 11:25:00,
2013-05-10 07:35:00,71.6,68.8,30.03,SSW,192,11.0,17.0,91,0.00,,,0.00,Wunderground v.1.15,2013-05-10 11:35:00,
2013-05-10 07:40:00,71.7,69.3,30.03,SSW,195,11.0,17.0,92,0.00,,,0.00,Wunderground v.1.15,2013-05-10 11:40:00,
2013-05-10 07:45:00,71.7,69.3,30.02,South,191,11.0,17.0,92,0.00,,,0.00,Wunderground v.1.15,2013-05-10 11:45:00,
2013-05-10 07:50:00,71.5,69.1,30.02,South,182,11.0,17.0,92,0.00,,,0.00,Wunderground v.1.15,2013-05-10 11:50:00,
2013-05-10 07:55:00,71.5,69.1,30.02,SSE,159,10.0,17.0,92,0.00,,,0.00,Wunderground v.1.15,2013-05-10 11:55:00,
2013-05-10 08:00:00,71.5,69.1,30.02,South,173,9.0,9.0,92,0.00,,,0.00,Wunderground v.1.15,2013-05-10 12:00:00,
2013-05-10 08:05:00,71.6,69.2,30.03,South,191,8.0,17.0,92,0.00,,,0.00,Wunderground v.1.15,2013-05-10 12:05:00,
2013-05-10 08:10:00,71.5,69.1,30.02,SSE,168,8.0,17.0,92,0.00,,,0.00,Wunderground v.1.15,2013-05-10 12:10:00,
2013-05-10 08:20:00,71.6,68.8,30.01,SSE,150,11.0,17.0,91,0.00,,,0.00,Wunderground v.1.15,2013-05-10 12:20:00,
2013-05-10 08:25:00,71.7,68.9,30.00,SE,126,11.0,17.0,91,0.00,,,0.00,Wunderground v.1.15,2013-05-10 12:25:00,
2013-05-10 08:30:00,71.7,68.9,30.01,SSE,158,11.0,11.0,91,0.00,,,0.00,Wunderground v.1.15,2013-05-10 12:30:00,
2013-05-10 08:35:00,71.7,68.9,30.01,ESE,123,10.0,17.0,91,0.00,,,0.00,Wunderground v.1.15,2013-05-10 12:35:00,
2013-05-10 08:40:00,71.7,68.6,30.02,SSE,148,9.0,9.0,90,0.00,,,0.00,Wunderground v.1.15,2013-05-10 12:40:00,
2013-05-10 08:45:00,71.7,68.6,30.03,SSE,159,9.0,12.0,90,0.00,,,0.00,Wunderground v.1.15,2013-05-10 12:45:00,
2013-05-10 08:50:00,71.8,69.0,30.04,SE,144,9.0,17.0,91,0.00,,,0.00,Wunderground v.1.15,2013-05-10 12:50:00,
2013-05-10 09:00:00,71.7,68.9,30.06,SSE,154,7.0,17.0,91,0.00,,,0.00,Wunderground v.1.15,2013-05-10 13:00:00,
2013-05-10 09:05:00,71.7,68.9,30.06,SSE,153,7.0,17.0,91,0.00,,,0.00,Wunderground v.1.15,2013-05-10 13:05:00,
2013-05-10 09:10:00,71.7,68.9,30.05,SE,138,8.0,17.0,91,0.00,,,0.00,Wunderground v.1.15,2013-05-10 13:10:00,
2013-05-10 09:15:00,71.7,68.9,30.06,SSE,162,8.0,17.0,91,0.00,,,0.00,Wunderground v.1.15,2013-05-10 13:15:00,
2013-05-10 09:20:00,71.7,68.9,30.06,SE,134,7.0,17.0,91,0.00,,,0.00,Wunderground v.1.15,2013-05-10 13:20:00,
2013-05-10 09:25:00,71.6,68.8,30.06,ESE,123,7.0,17.0,91,0.00,,,0.00,Wunderground v.1.15,2013-05-10 13:25:00,
2013-05-10 09:30:00,71.6,68.8,30.07,South,169,8.0,8.0,91,0.00,,,0.00,Wunderground v.1.15,2013-05-10 13:30:00,
2013-05-10 09:35:00,71.6,69.2,30.07,SSE,156,8.0,17.0,92,0.00,,,0.00,Wunderground v.1.15,2013-05-10 13:35:00,
2013-05-10 09:40:00,71.6,69.2,30.09,South,189,7.0,17.0,92,0.00,,,0.00,Wunderground v.1.15,2013-05-10 13:40:00,
2013-05-10 09:50:00,71.4,69.0,30.09,South,186,8.0,17.0,92,0.00,,,0.00,Wunderground v.1.15,2013-05-10 13:50:00,
2013-05-10 09:55:00,71.4,69.3,30.10,SSW,193,8.0,17.0,93,0.00,,,0.00,Wunderground v.1.15,2013-05-10 13:55:00,
2013-05-10 10:05:00,71.4,69.3,30.09,SSE,159,8.0,17.0,93,0.00,,,0.00,Wunderground v.1.15,2013-05-10 14:05:00,
2013-05-10 10:10:00,71.5,69.4,30.10,SSE,162,8.0,8.0,93,0.00,,,0.00,Wunderground v.1.15,2013-05-10 14:10:00,
2013-05-10 10:20:00,71.5,69.4,30.10,South,175,7.0,7.0,93,0.00,,,0.00,Wunderground v.1.15,2013-05-10 14:20:00,
2013-05-10 10:25:00,71.3,68.9,30.11,SSE,166,7.0,17.0,92,0.00,,,0.00,Wunderground v.1.15,2013-05-10 14:25:00,
2013-05-10 10:30:00,71.3,69.2,30.11,South,180,5.0,5.0,93,0.00,,,0.01,Wunderground v.1.15,2013-05-10 14:30:00,
2013-05-10 10:35:00,71.3,68.9,30.11,SSE,165,4.0,17.0,92,0.00,,,0.01,Wunderground v.1.15,2013-05-10 14:35:00,
2013-05-10 10:45:00,71.3,69.2,30.11,South,188,3.0,17.0,93,0.00,,,0.01,Wunderground v.1.15,2013-05-10 14:45:00,
2013-05-10 10:50:00,71.3,69.2,30.13,WSW,238,1.0,1.0,93,0.00,,,0.01,Wunderground v.1.15,2013-05-10 14:50:00,
2013-05-10 10:55:00,71.2,69.1,30.13,WSW,237,0.0,17.0,93,0.00,,,0.01,Wunderground v.1.15,2013-05-10 14:55:00,
2013-05-10 11:00:00,71.2,69.1,30.12,WSW,237,0.0,17.0,93,0.00,,,0.02,Wunderground v.1.15,2013-05-10 15:00:00,
2013-05-10 11:05:00,71.0,68.9,30.14,WSW,246,2.0,17.0,93,0.00,,,0.02,Wunderground v.1.15,2013-05-10 15:05:00,
2013-05-10 11:10:00,71.0,69.2,30.15,West,260,4.0,4.0,94,0.06,,,0.02,Wunderground v.1.15,2013-05-10 15:10:00,
2013-05-10 11:15:00,71.0,69.2,30.15,WNW,288,4.0,7.0,94,0.06,,,0.03,Wunderground v.1.15,2013-05-10 15:15:00,
2013-05-10 11:20:00,70.9,69.1,30.15,West,269,6.0,17.0,94,0.06,,,0.03,Wunderground v.1.15,2013-05-10 15:20:00,
2013-05-10 11:25:00,70.9,69.1,30.16,WNW,286,7.0,17.0,94,0.04,,,0.03,Wunderground v.1.15,2013-05-10 15:25:00,
2013-05-10 11:35:00,70.7,69.2,30.16,West,273,8.0,17.0,95,0.21,,,0.04,Wunderground v.1.15,2013-05-10 15:35:00,
2013-05-10 11:40:00,70.7,69.2,30.16,WNW,284,8.0,8.0,95,0.12,,,0.05,Wunderground v.1.15,2013-05-10 15:40:00,
2013-05-10 11:45:00,69.9,67.8,30.16,West,273,12.0,13.0,93,0.24,,,0.07,Wunderground v.1.15,2013-05-10 15:45:00,
2013-05-10 11:50:00,69.8,67.7,30.16,West,280,16.0,20.0,93,0.31,,,0.09,Wunderground v.1.15,2013-05-10 15:50:00,
2013-05-10 11:55:00,68.7,66.0,30.17,WNW,283,17.0,20.0,91,0.19,,,0.11,Wunderground v.1.15,2013-05-10 15:55:00,
2013-05-10 12:05:00,68.1,64.4,30.16,West,281,15.0,17.0,88,0.14,,,0.14,Wunderground v.1.15,2013-05-10 16:05:00,
2013-05-10 12:10:00,68.2,64.5,30.15,WSW,254,13.0,13.0,88,0.15,,,0.15,Wunderground v.1.15,2013-05-10 16:10:00,
2013-05-10 12:15:00,68.1,64.4,30.15,West,269,10.0,13.0,88,0.17,,,0.17,Wunderground v.1.15,2013-05-10 16:15:00,
2013-05-10 12:25:00,68.4,64.7,30.14,WSW,254,10.0,10.0,88,0.17,,,0.19,Wunderground v.1.15,2013-05-10 16:25:00,
2013-05-10 12:30:00,68.6,64.6,30.14,WSW,245,10.0,10.0,87,0.10,,,0.20,Wunderground v.1.15,2013-05-10 16:30:00,
2013-05-10 12:35:00,68.9,64.5,30.14,WSW,242,10.0,13.0,86,0.16,,,0.21,Wunderground v.1.15,2013-05-10 16:35:00,
2013-05-10 12:45:00,69.1,64.1,30.13,West,259,14.0,14.0,84,0.21,,,0.23,Wunderground v.1.15,2013-05-10 16:45:00,
2013-05-10 12:50:00,69.1,64.1,30.12,WSW,252,13.0,14.0,84,0.11,,,0.23,Wunderground v.1.15,2013-05-10 16:50:00,
2013-05-10 13:00:00,69.1,63.7,30.10,WSW,248,14.0,14.0,83,0.11,,,0.25,Wunderground v.1.15,2013-05-10 17:00:00,
2013-05-10 13:10:00,69.2,64.2,30.04,SSE,162,15.0,21.0,84,0.04,,,0.25,Wunderground v.1.15,2013-05-10 17:10:00,
2013-05-10 13:20:00,69.5,64.5,30.00,SSE,150,25.0,25.0,84,0.11,,,0.27,Wunderground v.1.15,2013-05-10 17:20:00,
2013-05-10 13:25:00,69.6,64.5,30.01,South,171,23.0,25.0,84,0.06,,,0.27,Wunderground v.1.15,2013-05-10 17:25:00,
2013-05-10 13:35:00,69.9,65.5,30.01,SSW,205,22.0,27.0,86,0.00,,,0.27,Wunderground v.1.15,2013-05-10 17:35:00,
2013-05-10 13:40:00,70.4,65.7,30.02,SSW,206,23.0,23.0,85,0.00,,,0.27,Wunderground v.1.15,2013-05-10 17:40:00,
2013-05-10 13:45:00,70.6,65.5,30.01,SSW,207,22.0,31.0,84,0.00,,,0.27,Wunderground v.1.15,2013-05-10 17:45:00,
2013-05-10 13:50:00,70.6,65.5,30.02,SW,229,22.0,23.0,84,0.00,,,0.27,Wunderground v.1.15,2013-05-10 17:50:00,
2013-05-10 14:00:00,70.4,65.7,30.01,SSW,200,23.0,28.0,85,0.00,,,0.27,Wunderground v.1.15,2013-05-10 18:00:00,
2013-05-10 14:05:00,70.1,65.4,29.98,South,185,26.0,31.0,85,0.00,,,0.27,Wunderground v.1.15,2013-05-10 18:05:00,
2013-05-10 14:10:00,69.9,64.8,30.01,SW,229,27.0,27.0,84,0.00,,,0.27,Wunderground v.1.15,2013-05-10 18:10:00,
2013-05-10 14:20:00,70.1,65.0,30.02,WSW,248,17.0,17.0,84,0.00,,,0.27,Wunderground v.1.15,2013-05-10 18:20:00,
2013-05-10 14:25:00,70.3,64.9,30.00,SW,223,14.0,17.0,83,0.00,,,0.27,Wunderground v.1.15,2013-05-10 18:25:00,
2013-05-10 14:35:00,70.8,65.4,29.99,SSW,194,14.0,17.0,83,0.00,,,0.27,Wunderground v.1.15,2013-05-10 18:35:00,
2013-05-10 14:40:00,71.0,65.6,30.00,SSW,196,15.0,20.0,83,0.00,,,0.27,Wunderground v.1.15,2013-05-10 18:40:00,
2013-05-10 14:50:00,71.3,65.9,30.00,South,186,16.0,22.0,83,0.00,,,0.27,Wunderground v.1.15,2013-05-10 18:50:00,
2013-05-10 14:55:00,71.3,66.2,30.00,SSW,207,18.0,22.0,84,0.00,,,0.27,Wunderground v.1.15,2013-05-10 18:55:00,
2013-05-10 15:05:00,71.5,66.8,30.00,SSW,192,17.0,22.0,85,0.00,,,0.27,Wunderground v.1.15,2013-05-10 19:05:00,
2013-05-10 15:10:00,71.6,66.8,30.00,South,180,17.0,17.0,85,0.00,,,0.27,Wunderground v.1.15,2013-05-10 19:10:00,
2013-05-10 15:15:00,71.5,66.8,30.00,SSW,211,17.0,17.0,85,0.00,,,0.27,Wunderground v.1.15,2013-05-10 19:15:00,
2013-05-10 15:20:00,71.7,66.9,30.00,SSW,196,15.0,21.0,85,0.00,,,0.27,Wunderground v.1.15,2013-05-10 19:20:00,
2013-05-10 15:30:00,72.3,66.8,30.00,SSW,209,14.0,14.0,83,0.00,,,0.27,Wunderground v.1.15,2013-05-10 19:30:00,
2013-05-10 15:35:00,72.5,66.7,29.99,SSW,211,14.0,17.0,82,0.00,,,0.27,Wunderground v.1.15,2013-05-10 19:35:00,
2013-05-10 15:40:00,72.8,66.6,29.98,SW,221,15.0,15.0,81,0.00,,,0.27,Wunderground v.1.15,2013-05-10 19:40:00,
2013-05-10 15:50:00,73.3,66.8,29.96,SSW,200,15.0,17.0,80,0.00,,,0.27,Wunderground v.1.15,2013-05-10 19:50:00,
2013-05-10 15:55:00,73.6,66.7,29.97,SW,217,15.0,17.0,79,0.00,,,0.27,Wunderground v.1.15,2013-05-10 19:55:00,
2013-05-10 16:05:00,73.8,66.1,29.96,SW,214,16.0,18.0,77,0.00,,,0.27,Wunderground v.1.15,2013-05-10 20:05:00,
2013-05-10 16:10:00,73.8,66.1,29.96,SSW,207,17.0,19.0,77,0.00,,,0.27,Wunderground v.1.15,2013-05-10 20:10:00,
2013-05-10 16:20:00,74.1,66.0,29.96,SW,223,17.0,17.0,76,0.00,,,0.27,Wunderground v.1.15,2013-05-10 20:20:00,
2013-05-10 16:25:00,73.8,66.1,29.95,SSW,207,18.0,22.0,77,0.00,,,0.27,Wunderground v.1.15,2013-05-10 20:25:00,
2013-05-10 16:30:00,73.7,66.4,29.95,SW,223,17.0,18.0,78,0.00,,,0.27,Wunderground v.1.15,2013-05-10 20:30:00,
2013-05-10 16:40:00,73.4,66.9,29.95,SW,234,14.0,14.0,80,0.00,,,0.27,Wunderground v.1.15,2013-05-10 20:40:00,
2013-05-10 16:45:00,73.2,66.7,29.95,WSW,245,14.0,14.0,80,0.00,,,0.27,Wunderground v.1.15,2013-05-10 20:45:00,
2013-05-10 16:50:00,73.2,66.7,29.95,West,262,15.0,19.0,80,0.00,,,0.27,Wunderground v.1.15,2013-05-10 20:50:00,
2013-05-10 16:55:00,73.3,66.8,29.94,WSW,251,16.0,19.0,80,0.00,,,0.27,Wunderground v.1.15,2013-05-10 20:55:00,
2013-05-10 17:05:00,73.7,67.5,29.94,West,259,13.0,15.0,81,0.00,,,0.27,Wunderground v.1.15,2013-05-10 21:05:00,
2013-05-10 17:10:00,74.0,67.4,29.94,WSW,256,13.0,16.0,80,0.00,,,0.27,Wunderground v.1.15,2013-05-10 21:10:00,
2013-05-10 17:20:00,74.3,67.7,29.94,West,273,12.0,12.0,80,0.00,,,0.27,Wunderground v.1.15,2013-05-10 21:20:00,
2013-05-10 17:25:00,74.3,67.7,29.94,West,263,13.0,13.0,80,0.00,,,0.27,Wunderground v.1.15,2013-05-10 21:25:00,
2013-05-10 17:35:00,74.3,68.1,29.94,West,268,11.0,13.0,81,0.00,,,0.27,Wunderground v.1.15,2013-05-10 21:35:00,
2013-05-10 17:40:00,74.0,67.4,29.95,SW,235,11.0,15.0,80,0.00,,,0.27,Wunderground v.1.15,2013-05-10 21:40:00,
2013-05-10 17:50:00,73.7,67.5,29.95,WSW,256,13.0,13.0,81,0.00,,,0.27,Wunderground v.1.15,2013-05-10 21:50:00,
2013-05-10 17:55:00,73.6,67.4,29.95,WSW,252,13.0,13.0,81,0.00,,,0.27,Wunderground v.1.15,2013-05-10 21:55:00,
2013-05-10 18:00:00,73.4,67.2,29.96,West,274,12.0,12.0,81,0.00,,,0.27,Wunderground v.1.15,2013-05-10 22:00:00,
2013-05-10 18:10:00,73.4,67.6,29.96,WSW,244,12.0,12.0,82,0.00,,,0.27,Wunderground v.1.15,2013-05-10 22:10:00,
2013-05-10 18:15:00,73.4,67.9,29.97,West,273,12.0,12.0,83,0.00,,,0.27,Wunderground v.1.15,2013-05-10 22:15:00,
2013-05-10 18:20:00,73.2,67.7,29.97,WSW,257,12.0,14.0,83,0.00,,,0.27,Wunderground v.1.15,2013-05-10 22:20:00,
2013-05-10 18:25:00,73.1,68.0,29.97,WNW,286,12.0,14.0,84,0.00,,,0.27,Wunderground v.1.15,2013-05-10 22:25:00,
2013-05-10 18:30:00,73.0,67.9,29.97,West,278,11.0,11.0,84,0.00,,,0.27,Wunderground v.1.15,2013-05-10 22:30:00,
2013-05-10 18:35:00,72.7,67.9,29.96,West,265,10.0,11.0,85,0.00,,,0.27,Wunderground v.1.15,2013-05-10 22:35:00,
2013-05-10 18:40:00,72.5,67.7,29.96,WNW,292,8.0,8.0,85,0.00,,,0.27,Wunderground v.1.15,2013-05-10 22:40:00,
2013-05-10 18:45:00,72.4,68.0,29.96,West,271,8.0,11.0,86,0.00,,,0.27,Wunderground v.1.15,2013-05-10 22:45:00,
2013-05-10 18:55:00,72.1,68.0,29.96,West,277,10.0,13.0,87,0.00,,,0.27,Wunderground v.1.15,2013-05-10 22:55:00,
2013-05-10 19:05:00,72.0,68.2,29.97,WSW,258,11.0,11.0,88,0.00,,,0.27,Wunderground v.1.15,2013-05-10 23:05:00,
2013-05-10 19:10:00,72.0,68.2,29.97,West,280,10.0,11.0,88,0.00,,,0.27,Wunderground v.1.15,2013-05-10 23:10:00,
2013-05-10 19:20:00,72.0,68.2,29.98,West,264,11.0,15.0,88,0.00,,,0.27,Wunderground v.1.15,2013-05-10 23:20:00,
2013-05-10 19:25:00,71.9,68.2,29.98,WNW,293,13.0,15.0,88,0.00,,,0.27,Wunderground v.1.15,2013-05-10 23:25:00,
2013-05-10 19:30:00,71.8,68.1,29.99,WNW,288,15.0,15.0,88,0.00,,,0.27,Wunderground v.1.15,2013-05-10 23:30:00,
2013-05-10 19:40:00,71.8,68.4,30.01,West,271,15.0,20.0,89,0.00,,,0.27,Wunderground v.1.15,2013-05-10 23:40:00,
2013-05-10 19:45:00,71.7,68.6,30.02,West,269,18.0,20.0,90,0.00,,,0.27,Wunderground v.1.15,2013-05-10 23:45:00,
2013-05-10 19:50:00,71.6,68.5,30.03,West,263,19.0,24.0,90,0.00,,,0.27,Wunderground v.1.15,2013-05-10 23:50:00,
2013-05-10 20:00:00,71.0,68.6,30.04,West,259,20.0,20.0,92,0.00,,,0.27,Wunderground v.1.15,2013-05-11 00:00:00,
2013-05-10 20:05:00,70.6,68.2,30.05,West,259,22.0,22.0,92,0.00,,,0.28,Wunderground v.1.15,2013-05-11 00:05:00,
2013-05-10 20:10:00,70.3,68.2,30.05,West,265,22.0,22.0,93,0.12,,,0.29,Wunderground v.1.15,2013-05-11 00:10:00,
2013-05-10 20:20:00,69.6,67.5,30.05,WSW,254,22.0,24.0,93,0.09,,,0.30,Wunderground v.1.15,2013-05-11 00:20:00,
2013-05-10 20:25:00,69.5,67.7,30.05,WNW,284,22.0,29.0,94,0.08,,,0.31,Wunderground v.1.15,2013-05-11 00:25:00,
2013-05-10 20:35:00,69.5,67.7,30.05,WSW,256,19.0,21.0,94,0.04,,,0.31,Wunderground v.1.15,2013-05-11 00:35:00,
2013-05-10 20:40:00,69.3,67.2,30.06,WNW,284,19.0,19.0,93,0.00,,,0.31,Wunderground v.1.15,2013-05-11 00:40:00,
2013-05-10 20:50:00,69.0,66.9,30.06,West,281,20.0,30.0,93,0.00,,,0.31,Wunderground v.1.15,2013-05-11 00:50:00,
2013-05-10 20:55:00,68.8,66.7,30.05,West,267,21.0,30.0,93,0.00,,,0.31,Wunderground v.1.15,2013-05-11 00:55:00,
2013-05-10 21:00:00,68.7,66.6,30.05,West,277,19.0,19.0,93,0.00,,,0.31,Wunderground v.1.15,2013-05-11 01:00:00,
2013-05-10 21:10:00,68.7,66.9,30.04,West,262,16.0,21.0,94,0.00,,,0.31,Wunderground v.1.15,2013-05-11 01:10:00,
2013-05-10 21:15:00,68.6,66.5,30.03,WSW,257,15.0,21.0,93,0.00,,,0.31,Wunderground v.1.15,2013-05-11 01:15:00,
2013-05-10 21:20:00,68.5,66.4,30.02,WSW,252,13.0,13.0,93,0.00,,,0.31,Wunderground v.1.15,2013-05-11 01:20:00,
2013-05-10 21:25:00,68.6,66.5,30.01,WSW,254,11.0,13.0,93,0.00,,,0.31,Wunderground v.1.15,2013-05-11 01:25:00,
2013-05-10 21:35:00,68.8,66.7,29.99,SSW,209,3.0,11.0,93,0.00,,,0.31,Wunderground v.1.15,2013-05-11 01:35:00,
2013-05-10 21:40:00,68.8,66.7,29.98,SSW,209,0.0,11.0,93,0.00,,,0.31,Wunderground v.1.15,2013-05-11 01:40:00,
2013-05-10 21:50:00,68.8,66.7,29.97,SSW,209,0.0,11.0,93,0.00,,,0.31,Wunderground v.1.15,2013-05-11 01:50:00,
2013-05-10 21:55:00,68.7,66.6,29.98,SSW,209,0.0,11.0,93,0.00,,,0.31,Wunderground v.1.15,2013-05-11 01:55:00,
2013-05-10 22:05:00,68.8,66.7,29.97,SSW,209,0.0,11.0,93,0.00,,,0.31,Wunderground v.1.15,2013-05-11 02:05:00,
2013-05-10 22:10:00,69.1,67.0,29.94,ENE,78,1.0,11.0,93,0.00,,,0.31,Wunderground v.1.15,2013-05-11 02:10:00,
2013-05-10 22:20:00,68.3,66.5,29.92,SSE,159,13.0,13.0,94,0.00,,,0.31,Wunderground v.1.15,2013-05-11 02:20:00,
2013-05-10 22:25:00,68.4,66.6,29.94,SSE,159,10.0,13.0,94,0.00,,,0.31,Wunderground v.1.15,2013-05-11 02:25:00,
2013-05-10 22:35:00,69.2,67.4,29.95,SSE,157,10.0,12.0,94,0.00,,,0.31,Wunderground v.1.15,2013-05-11 02:35:00,
2013-05-10 22:40:00,69.4,67.6,29.94,SE,142,10.0,13.0,94,0.00,,,0.31,Wunderground v.1.15,2013-05-11 02:40:00,
2013-05-10 22:45:00,69.5,67.4,29.94,SSE,165,9.0,13.0,93,0.00,,,0.31,Wunderground v.1.15,2013-05-11 02:45:00,
2013-05-10 22:50:00,69.6,67.5,29.94,SE,129,9.0,13.0,93,0.00,,,0.31,Wunderground v.1.15,2013-05-11 02:50:00,
2013-05-10 23:00:00,69.8,67.7,29.94,SE,133,14.0,14.0,93,0.00,,,0.31,Wunderground v.1.15,2013-05-11 03:00:00,
2013-05-10 23:05:00,69.7,67.6,29.95,South,170,12.0,14.0,93,0.00,,,0.31,Wunderground v.1.15,2013-05-11 03:05:00,
2013-05-10 23:15:00,69.9,67.8,29.95,South,171,12.0,12.0,93,0.00,,,0.31,Wunderground v.1.15,2013-05-11 03:15:00,
2013-05-10 23:20:00,70.0,67.9,29.96,SSE,167,11.0,11.0,93,0.00,,,0.31,Wunderground v.1.15,2013-05-11 03:20:00,
2013-05-10 23:25:00,69.7,67.3,29.96,South,169,9.0,11.0,92,0.00,,,0.31,Wunderground v.1.15,2013-05-11 03:25:00,
2013-05-10 23:35:00,69.7,67.3,29.97,South,175,9.0,11.0,92,0.00,,,0.31,Wunderground v.1.15,2013-05-11 03:35:00,
2013-05-10 23:40:00,69.8,67.7,29.97,SSW,196,9.0,9.0,93,0.00,,,0.31,Wunderground v.1.15,2013-05-11 03:40:00,
2013-05-10 23:50:00,69.8,67.7,29.97,SSW,192,7.0,11.0,93,0.00,,,0.31,Wunderground v.1.15,2013-05-11 03:50:00,
2013-05-10 23:55:00,69.8,67.7,29.98,South,186,9.0,11.0,93,0.00,,,0.31,Wunderground v.1.15,2013-05-11 03:55:00,